Airfield :
LOGIN :

Register | Disclaimer

   EN    FR    IT 

 










Legend :    VFR   Marginal VFR   IFR   Intensive IFR   Very Intensive IFR
Visi :
Ceiling :
>= 8 km
>= 3000ft
5 to 8 km
1000 to 3000 ft
1500m to 5 km
500 to 1000 ft
800 to 1500m
200 to 500 ft
< 800m
< 200 ft
Symbols :   Thunderstorms  Fog  Heavy snow  Heavy precipitations  Wind > 20 kt
SIGMETs :     Misc.  Thunderstorms  Icing  Turbulence  Mountain Waves  Volcanic Ashes






- Airport Elevation : 989 ft
- IATA code : TRN


LIMF - Torino Caselle

CURRENT METAR :
  • 241120Z 03004KT 010V070 7000 SCT015 BKN030 09/05 Q1006

EXPIRED METARs :
  • 241050Z 06004KT 030V090 7000 SCT015 BKN030 08/05 Q1006
  • 241020Z 09003KT 030V180 7000 SCT015 BKN025 08/05 Q1006
  • 240950Z 08007KT 7000 SCT015 BKN025 07/05 Q1005
  • 240920Z 07006KT 7000 SCT015 SCT030 08/05 Q1005
  • 240850Z VRB02KT 7000 SCT015 SCT030 08/05 Q1005
  • 240820Z 29004KT 270V340 7000 SCT015 SCT030 07/04 Q1005
  • 240750Z VRB02KT 7000 SCT010 BKN030 06/04 Q1005
  • 240720Z VRB01KT 5000 BR SCT010 BKN030 06/06 Q1004
  • 240650Z VRB01KT 5000 BR SCT010 BKN030 06/06 Q1004

TAF TAF LIMF
Valid from the 24 at 12:00 until the 25 at 12:00 UTC


241100Z 2412/2512 VRB05KT 7000 SCT015 SCT025
TEMPO 2418/2424 4000 RA
TEMPO 2500/2508 1200 BCFG



MET'MAP, your aeronautical weather chart ! - Copyright ORBIFLY December 2007 - Disclaimer

ORBIFLY MET'MAP TEAM :

Programming & Development : Alexandra Zaïnal
Original concept : Baudouin d'Aumeries
Technical & hardware support : Manuel Goepfert
Assistance : Marc-Olivier Méhu




SOURCES & CREDITS :

   NOAA